DXXX/LFW METAR and TAF weather

Enter ICAO airport designator
Station Type Date Time Source
DXXX METAR 2020/02/16 20:00 UTC NOAA

DXXX 162000Z 20008KT 3500 HZ FEW013 29/26 Q1010 NOSIG


Station Type Date Time Source
DXXX Decoded METAR 2020/02/16 20:00 UTC NOAA

Lome, Togo (DXXX) 06-10N 001-15E 25M
Feb 16, 2020 - 03:00 PM EST / 2020.02.16 2000 UTC
Wind: from the SSW (200 degrees) at 9 MPH (8 KT):0
Visibility: 2 mile(s):0
Sky conditions: mostly clear
Weather: haze
Temperature: 84 F (29 C)
Dew Point: 78 F (26 C)
Relative Humidity: 83%
Pressure (altimeter): 29.83 in. Hg (1010 hPa)
ob: DXXX 162000Z 20008KT 3500 HZ FEW013 29/26 Q1010 NOSIG
cycle: 20

Station Type Date Time Source
DXXX TAF 2020/02/16 18:21 UTC NOAA

TAF DXXX 161700Z 1618/1724 VRB03KT 3500 HZ FEW013
BECMG 1621/1623 VRB03KT
TEMPO 1705/1709 2500 BR
BECMG 1709/1711 18010KT

Example: see airport list